^^
Saratoga-Weather Station Historical Data
 
Daily Summary for October 20, 2019 Units:  English    Metric   Both
Daily Weekly Monthly Yearly Custom
  Current: High: Low: Average:
Temperature: 50.4 °F 50.4 °F 35.5 °F 39.6 °F
Dew Point: 43.4 °F 43.4 °F 33.8 °F 37.1 °F
Humidity: 76.9% 95% 76.9% 91%
Wind Speed: 0.6mph 1.2mph 0mph 0.2mph
Wind Gust: 3.5mph 10mph - -
WindWNW - - SW
Pressure: 30.00 in 30.03 in 29.97 in -
Precipitation: 0.00 in      
Historical Graphs
 
 
Tabular Data for October 20, 2019
Time Temperature Dew Point Pressure Wind Wind Speed Wind Gust Humidity Rainfall Rate (Hourly) solar
00:04 42.3 °F 39 °F 29.98 in WSW 0.2 mph 10 mph 88% 0.00 in 0 W/m2
00:09 42 °F 38.7 °F 29.98 in WSW 0.2 mph 1.2 mph 88% 0.00 in 0 W/m2
00:14 41.7 °F 38.5 °F 29.98 in WSW 0.4 mph 1.2 mph 88.3% 0.00 in 0 W/m2
00:19 41.5 °F 38.5 °F 29.98 in Calm   1.2 mph 89% 0.00 in 0 W/m2
00:24 41.4 °F 38.4 °F 29.98 in Calm   1 mph 89% 0.00 in 0 W/m2
00:29 41.4 °F 38.6 °F 29.97 in WSW 0.4 mph 1.2 mph 89.7% 0.00 in 0 W/m2
00:34 41.3 °F 38.6 °F 29.97 in Calm     89.9% 0.00 in 0 W/m2
00:39 41.3 °F 38.6 °F 29.97 in Calm     90% 0.00 in 0 W/m2
00:44 41.3 °F 38.6 °F 29.97 in WSW 0.1 mph 1.2 mph 90% 0.00 in 0 W/m2
00:49 41.3 °F 38.6 °F 29.97 in Calm   1.2 mph 90% 0.00 in 0 W/m2
00:54 41.2 °F 38.5 °F 29.97 in WSW 0.2 mph 1.2 mph 90% 0.00 in 0 W/m2
00:59 41.1 °F 38.4 °F 29.97 in WSW 0.3 mph 1.2 mph 90% 0.00 in 0 W/m2
01:04 41 °F 38.3 °F 29.97 in Calm     90% 0.00 in 0 W/m2
01:09 40.9 °F 38.2 °F 29.98 in Calm     90% 0.00 in 0 W/m2
01:14 40.8 °F 38.1 °F 29.97 in Calm     90% 0.00 in 0 W/m2
01:19 40.7 °F 38 °F 29.97 in Calm     90% 0.00 in 0 W/m2
01:24 40.6 °F 37.9 °F 29.97 in Calm     90% 0.00 in 0 W/m2
01:29 40.5 °F 37.8 °F 29.97 in Calm     90% 0.00 in 0 W/m2
01:34 40.5 °F 37.8 °F 29.98 in Calm     90% 0.00 in 0 W/m2
01:39 40.4 °F 37.7 °F 29.98 in Calm     90% 0.00 in 0 W/m2
01:44 40.3 °F 37.6 °F 29.98 in WSW 0.1 mph 1.2 mph 90% 0.00 in 0 W/m2
01:49 40 °F 37.3 °F 29.97 in WSW 0.1 mph 1.2 mph 90% 0.00 in 0 W/m2
01:54 39.9 °F 37.3 °F 29.97 in WSW 0.2 mph 1.2 mph 90.3% 0.00 in 0 W/m2
01:59 39.8 °F 37.4 °F 29.98 in WSW 0.2 mph 1.2 mph 91% 0.00 in 0 W/m2
02:04 39.8 °F 37.4 °F 29.99 in WSW 0.3 mph 2.3 mph 91% 0.00 in 0 W/m2
02:09 39.7 °F 37.3 °F 29.99 in Calm   1.2 mph 91% 0.00 in 0 W/m2
02:14 39.6 °F 37.2 °F 29.98 in Calm     91% 0.00 in 0 W/m2
02:19 39.4 °F 37 °F 29.98 in Calm     91% 0.00 in 0 W/m2
02:24 39.3 °F 36.9 °F 29.98 in Calm     91% 0.00 in 0 W/m2
02:29 39.3 °F 36.9 °F 29.98 in Calm     91% 0.00 in 0 W/m2
02:34 39.2 °F 36.8 °F 29.99 in WSW 0.2 mph 1.2 mph 91% 0.00 in 0 W/m2
02:39 39.1 °F 36.7 °F 29.99 in WSW 0.5 mph 1.2 mph 91% 0.00 in 0 W/m2
02:44 39 °F 36.6 °F 29.99 in Calm   1.2 mph 91% 0.00 in 0 W/m2
02:49 38.9 °F 36.5 °F 29.99 in Calm     91% 0.00 in 0 W/m2
02:54 38.8 °F 36.4 °F 29.99 in WSW 0.1 mph 1.2 mph 91% 0.00 in 0 W/m2
02:59 38.6 °F 36.4 °F 29.99 in WSW 0.1 mph 1.2 mph 91.4% 0.00 in 0 W/m2
03:04 38.5 °F 36.3 °F 29.99 in Calm     91.7% 0.00 in 0 W/m2
03:09 38.5 °F 36.4 °F 29.99 in WSW 0.1 mph 1.2 mph 92% 0.00 in 0 W/m2
03:14 38.4 °F 36.3 °F 29.98 in Calm     92% 0.00 in 0 W/m2
03:19 38.4 °F 36.3 °F 29.98 in Calm     92% 0.00 in 0 W/m2
03:24 38.3 °F 36.2 °F 29.98 in WSW 0.1 mph 1.2 mph 92% 0.00 in 0 W/m2
03:29 38.3 °F 36.2 °F 29.98 in Calm     92% 0.00 in 0 W/m2
03:34 38.2 °F 36.1 °F 29.98 in Calm     92% 0.00 in 0 W/m2
03:39 38.2 °F 36.1 °F 29.98 in WSW 0.1 mph 1.2 mph 92% 0.00 in 0 W/m2
03:44 38.2 °F 36.1 °F 29.98 in WSW 0.1 mph 1.2 mph 92% 0.00 in 0 W/m2
03:49 38 °F 35.9 °F 29.98 in WSW 0.1 mph 1.2 mph 92% 0.00 in 0 W/m2
03:54 38 °F 35.9 °F 29.98 in Calm     92% 0.00 in 0 W/m2
03:59 37.9 °F 35.8 °F 29.97 in Calm     92% 0.00 in 0 W/m2
04:04 37.8 °F 35.7 °F 29.97 in WSW 0.3 mph 1.2 mph 92% 0.00 in 0 W/m2
04:09 37.7 °F 35.6 °F 29.97 in WSW 0.1 mph 1.2 mph 92% 0.00 in 0 W/m2
04:14 37.7 °F 35.6 °F 29.97 in Calm     92% 0.00 in 0 W/m2
04:19 37.6 °F 35.5 °F 29.97 in Calm     92% 0.00 in 0 W/m2
04:24 37.5 °F 35.4 °F 29.97 in Calm     92% 0.00 in 0 W/m2
04:29 37.5 °F 35.4 °F 29.98 in Calm     92% 0.00 in 0 W/m2
04:34 37.3 °F 35.2 °F 29.97 in WSW 0.2 mph 1.2 mph 92% 0.00 in 0 W/m2
04:39 37.1 °F 35 °F 29.97 in WSW 0.4 mph 1.2 mph 92% 0.00 in 0 W/m2
04:44 37.1 °F 35.2 °F 29.97 in Calm     92.7% 0.00 in 0 W/m2
04:49 37 °F 35.2 °F 29.97 in Calm     93% 0.00 in 0 W/m2
04:54 37 °F 35.2 °F 29.97 in Calm     93% 0.00 in 0 W/m2
04:59 37 °F 35.2 °F 29.97 in WSW 0.2 mph 1.2 mph 93% 0.00 in 0 W/m2
05:04 37 °F 35.2 °F 29.97 in Calm   1.2 mph 93% 0.00 in 0 W/m2
05:09 37 °F 35.2 °F 29.97 in Calm     93% 0.00 in 0 W/m2
05:14 36.9 °F 35.1 °F 29.98 in Calm     93% 0.00 in 0 W/m2
05:19 36.9 °F 35.1 °F 29.98 in Calm     93% 0.00 in 0 W/m2
05:24 36.9 °F 35.1 °F 29.98 in Calm     93% 0.00 in 0 W/m2
05:29 36.8 °F 35 °F 29.98 in Calm     93% 0.00 in 0 W/m2
05:34 36.7 °F 34.9 °F 29.98 in Calm     93% 0.00 in 0 W/m2
05:39 36.6 °F 34.8 °F 29.99 in Calm     93% 0.00 in 0 W/m2
05:44 36.5 °F 34.7 °F 29.99 in Calm     93% 0.00 in 0 W/m2
05:49 36.2 °F 34.4 °F 29.99 in Calm     93% 0.00 in 0 W/m2
05:54 36.1 °F 34.3 °F 29.99 in WSW 0.1 mph 1.2 mph 93% 0.00 in 0 W/m2
05:59 36 °F 34.2 °F 29.99 in Calm     93% 0.00 in 0 W/m2
06:04 35.9 °F 34.1 °F 29.99 in WSW 0.1 mph 1 mph 93% 0.00 in 0 W/m2
06:09 36 °F 34.2 °F 29.99 in WSW 0.6 mph 1.2 mph 93% 0.00 in 0 W/m2
06:14 35.9 °F 34.1 °F 29.99 in Calm   1.2 mph 93% 0.00 in 0 W/m2
06:19 35.9 °F 34.1 °F 29.99 in Calm     93% 0.00 in 0 W/m2
06:24 36 °F 34.2 °F 29.99 in Calm     93% 0.00 in 0 W/m2
06:29 36 °F 34.2 °F 29.98 in Calm     93% 0.00 in 0 W/m2
06:34 36 °F 34.2 °F 29.98 in Calm     93% 0.00 in 0 W/m2
06:39 35.9 °F 34.1 °F 29.98 in Calm     93% 0.00 in 0 W/m2
06:44 35.9 °F 34.1 °F 29.98 in Calm     93% 0.00 in 0 W/m2
06:49 35.9 °F 34.1 °F 29.98 in Calm     93% 0.00 in 0 W/m2
06:54 35.9 °F 34.1 °F 29.98 in Calm     93% 0.00 in 0 W/m2
06:59 35.9 °F 34.1 °F 29.98 in Calm     93% 0.00 in 0 W/m2
07:04 35.8 °F 34 °F 29.98 in Calm     93% 0.00 in 1 W/m2
07:09 35.7 °F 33.9 °F 29.98 in Calm     93% 0.00 in 3 W/m2
07:14 35.6 °F 33.8 °F 29.98 in Calm     93% 0.00 in 5 W/m2
07:19 35.5 °F 33.8 °F 29.98 in Calm     93.4% 0.00 in 8 W/m2
07:24 35.5 °F 33.9 °F 29.98 in Calm     94% 0.00 in 10 W/m2
07:29 35.5 °F 33.9 °F 29.98 in Calm     94% 0.00 in 11 W/m2
07:34 35.5 °F 33.9 °F 29.98 in Calm     94% 0.00 in 13 W/m2
07:39 35.5 °F 33.9 °F 29.99 in Calm     94% 0.00 in 17 W/m2
07:44 35.5 °F 33.9 °F 29.99 in Calm     94% 0.00 in 18 W/m2
07:49 35.5 °F 33.9 °F 29.99 in Calm     94% 0.00 in 26 W/m2
07:54 35.5 °F 33.9 °F 29.99 in Calm     94% 0.00 in 36 W/m2
07:59 35.5 °F 33.9 °F 29.99 in Calm     94% 0.00 in 38 W/m2
08:04 35.6 °F 34 °F 29.99 in Calm     94% 0.00 in 42 W/m2
08:09 35.8 °F 34.2 °F 29.99 in Calm     94% 0.00 in 47 W/m2
08:14 36.1 °F 34.5 °F 29.99 in Calm     94% 0.00 in 50 W/m2
08:19 36.3 °F 34.7 °F 29.99 in Calm     94% 0.00 in 56 W/m2
08:24 36.5 °F 34.9 °F 30.00 in WSW 0.1 mph 1.2 mph 94% 0.00 in 60 W/m2
08:29 36.5 °F 34.9 °F 30.00 in Calm   1.2 mph 94% 0.00 in 62 W/m2
08:34 36.5 °F 34.9 °F 30.01 in WSW 0.9 mph 2.3 mph 94% 0.00 in 61 W/m2
08:39 36.8 °F 35.2 °F 30.01 in WSW 1.2 mph 3.5 mph 94% 0.00 in 61 W/m2
08:44 37 °F 35.4 °F 30.01 in WSW 0.1 mph 1.2 mph 94% 0.00 in 63 W/m2
08:49 37.2 °F 35.6 °F 30.02 in Calm     94% 0.00 in 63 W/m2
08:54 37.3 °F 35.7 °F 30.02 in Calm   1.2 mph 94% 0.00 in 59 W/m2
08:59 37.5 °F 35.9 °F 30.02 in WSW 0.1 mph 2 mph 94% 0.00 in 57 W/m2
09:04 37.7 °F 36.3 °F 30.02 in WSW 0.2 mph 2.3 mph 94.8% 0.00 in 57 W/m2
09:09 37.9 °F 36.5 °F 30.02 in WSW 0.2 mph 1.2 mph 94.8% 0.00 in 56 W/m2
09:14 38.2 °F 36.9 °F 30.02 in WSW 0.1 mph 1.2 mph 95% 0.00 in 55 W/m2
09:19 38.5 °F 37.2 °F 30.02 in WSW 0.4 mph 2 mph 95% 0.00 in 54 W/m2
09:24 39.2 °F 37.9 °F 30.02 in West 1.1 mph 3.5 mph 95% 0.00 in 54 W/m2
09:29 39.6 °F 38.3 °F 30.02 in West 0.4 mph 2.3 mph 95% 0.00 in 53 W/m2
09:34 40.2 °F 38.9 °F 30.03 in West 1.1 mph 2.3 mph 95% 0.00 in 51 W/m2
09:39 40.7 °F 39.1 °F 30.02 in West 0.7 mph 2.3 mph 94.1% 0.00 in 55 W/m2
09:44 41 °F 39.4 °F 30.02 in West 0.8 mph 2.3 mph 94% 0.00 in 81 W/m2
09:49 41.4 °F 39.8 °F 30.02 in West 0.3 mph 1.2 mph 94% 0.00 in 73 W/m2
09:54 41.8 °F 40 °F 30.02 in West 0.4 mph 2.3 mph 93.3% 0.00 in 75 W/m2
09:59 42.1 °F 40.2 °F 30.02 in West 0.4 mph 2.3 mph 93% 0.00 in 93 W/m2
10:04 42.7 °F 40.6 °F 30.02 in West 0.6 mph 2.3 mph 92.4% 0.00 in 111 W/m2
10:09 43.3 °F 40.9 °F 30.02 in West 0.4 mph 2.3 mph 91.6% 0.00 in 131 W/m2
10:14 43.5 °F 41 °F 30.02 in West 0.2 mph 2.3 mph 91% 0.00 in 122 W/m2
10:19 44 °F 41.5 °F 30.02 in North 0.7 mph 2.3 mph 90.8% 0.00 in 136 W/m2
10:24 44.6 °F 41.7 °F 30.02 in North 0.8 mph 2.3 mph 89.3% 0.00 in 137 W/m2
10:29 45 °F 41.6 °F 30.02 in North 0.6 mph 2.3 mph 87.7% 0.00 in 154 W/m2
10:34 45.3 °F 41.5 °F 30.02 in North 0.1 mph 1.2 mph 86.3% 0.00 in 154 W/m2
10:39 45.5 °F 41.5 °F 30.02 in North 0.3 mph 2.3 mph 85.6% 0.00 in 152 W/m2
10:44 45.7 °F 41.4 °F 30.02 in North 0.9 mph 2.3 mph 84.9% 0.00 in 189 W/m2
10:49 45.8 °F 41.2 °F 30.02 in North 0.5 mph 2.3 mph 84% 0.00 in 235 W/m2
10:54 45.9 °F 41.3 °F 30.02 in North 0.2 mph 1.2 mph 84% 0.00 in 254 W/m2
10:59 46.2 °F 41.5 °F 30.01 in North 0.9 mph 2.3 mph 83.8% 0.00 in 203 W/m2
11:04 46.6 °F 41.6 °F 30.01 in North 0.2 mph 2.3 mph 82.7% 0.00 in 243 W/m2
11:09 46.9 °F 41.7 °F 30.01 in North 0.2 mph 1.2 mph 82% 0.00 in 246 W/m2
11:14 47.2 °F 41.7 °F 30.01 in NNW 1.1 mph 3.5 mph 81.1% 0.00 in 296 W/m2
11:19 47.4 °F 41.9 °F 30.01 in WNW 0.5 mph 2.3 mph 81% 0.00 in 328 W/m2
11:24 47.8 °F 42 °F 30.01 in WNW 0.2 mph 2.3 mph 80.3% 0.00 in 342 W/m2
11:29 48.2 °F 42.3 °F 30.00 in WNW 0.4 mph 2.3 mph 80% 0.00 in 323 W/m2
11:34 48.5 °F 42.6 °F 30.00 in WNW 1 mph 2.3 mph 80% 0.00 in 310 W/m2
11:39 49 °F 42.8 °F 30.00 in WNW 0.7 mph 2.3 mph 78.9% 0.00 in 302 W/m2
11:44 49.5 °F 42.9 °F 30.00 in WNW 0.5 mph 3 mph 78% 0.00 in 254 W/m2
11:49 49.7 °F 43 °F 30.00 in WNW 0.5 mph 3.5 mph 77.9% 0.00 in 233 W/m2
11:54 49.8 °F 42.9 °F 30.00 in West 0.8 mph 2.3 mph 77% 0.00 in 222 W/m2
11:59 50.1 °F 43.3 °F 30.00 in West 0.7 mph 3 mph 77.4% 0.00 in 216 W/m2
12:04 50.4 °F 43.4 °F 30.00 in WNW 0.6 mph 3.5 mph 76.9% 0.00 in 197 W/m2
Miami Avenue - Newington, Connecticut, USA
Compliments of Weather Underground - 4 mb